createdAt,value
2018-04-24T00:00:37.206Z,68.10
2018-04-24T00:03:07.576Z,68.50
2018-04-24T00:05:40.734Z,68.20
2018-04-24T00:08:11.103Z,68.10
2018-04-24T00:10:41.474Z,68.40
2018-04-24T00:13:11.830Z,68.40
2018-04-24T00:15:42.935Z,68.40
2018-04-24T00:18:13.346Z,69.00
2018-04-24T00:20:44.620Z,68.50
2018-04-24T00:23:14.975Z,68.50
2018-04-24T00:25:45.346Z,68.50
2018-04-24T00:28:17.754Z,68.50
2018-04-24T00:30:48.103Z,67.90
2018-04-24T00:33:18.470Z,68.80
2018-04-24T00:35:54.976Z,69.50
2018-04-24T00:38:25.368Z,69.60
2018-04-24T00:40:59.799Z,69.50
2018-04-24T00:43:30.160Z,69.50
2018-04-24T00:48:48.799Z,69.80
2018-04-24T00:51:39.544Z,69.80
2018-04-24T00:54:09.848Z,70.10
2018-04-24T00:56:40.209Z,71.30
2018-04-24T00:59:10.597Z,71.20
2018-04-24T01:01:40.945Z,71.20
2018-04-24T01:04:11.260Z,71.70
2018-04-24T01:06:41.685Z,71.30
2018-04-24T01:09:15.062Z,71.40
2018-04-24T01:11:45.379Z,71.30
2018-04-24T01:14:16.765Z,71.60
2018-04-24T01:16:47.843Z,71.90
2018-04-24T01:19:18.197Z,71.10
2018-04-24T01:21:48.569Z,71.80
2018-04-24T01:24:19.698Z,71.70
2018-04-24T01:26:50.056Z,71.80
2018-04-24T01:29:20.442Z,71.70
2018-04-24T01:31:50.782Z,72.00
2018-04-24T01:34:21.128Z,72.30
2018-04-24T01:36:52.465Z,72.00
2018-04-24T01:39:23.581Z,72.50
2018-04-24T01:41:53.919Z,72.50
2018-04-24T01:44:24.288Z,72.40
2018-04-24T01:46:54.645Z,71.60
2018-04-24T01:49:24.988Z,71.70
2018-04-24T01:51:55.324Z,71.80
2018-04-24T01:54:25.691Z,72.40
2018-04-24T01:56:56.043Z,73.00
2018-04-24T01:59:29.471Z,73.00
2018-04-24T02:02:00.025Z,73.90
2018-04-24T02:04:30.365Z,74.10
2018-04-24T02:07:00.761Z,73.60
2018-04-24T02:09:31.093Z,74.00
2018-04-24T02:12:02.207Z,73.30
2018-04-24T02:14:32.586Z,73.30
2018-04-24T02:17:02.929Z,72.70
2018-04-24T02:19:40.478Z,72.80
2018-04-24T02:22:11.609Z,71.70
2018-04-24T02:24:41.919Z,71.70
2018-04-24T02:27:12.307Z,71.20
2018-04-24T02:29:42.656Z,70.80
2018-04-24T02:32:34.204Z,71.60
2018-04-24T02:35:04.544Z,71.60
2018-04-24T02:37:34.885Z,72.80
2018-04-24T02:40:05.215Z,73.40
2018-04-24T02:42:36.288Z,73.70
2018-04-24T02:45:12.825Z,73.60
2018-04-24T02:47:43.949Z,74.30
2018-04-24T02:50:14.297Z,74.20
2018-04-24T02:52:44.691Z,74.30
2018-04-24T02:55:15.036Z,73.30
2018-04-24T02:57:46.164Z,73.50
2018-04-24T03:00:16.545Z,73.50
2018-04-24T03:02:49.960Z,73.30
2018-04-24T03:05:20.316Z,74.20
2018-04-24T03:07:51.462Z,73.00
2018-04-24T03:10:21.821Z,73.20
2018-04-24T03:12:52.135Z,73.60
2018-04-24T03:15:22.520Z,73.80
2018-04-24T03:17:52.867Z,73.70
2018-04-24T03:20:23.225Z,74.00
2018-04-24T03:22:53.598Z,74.00
2018-04-24T03:25:23.943Z,73.10
2018-04-24T03:27:55.065Z,74.20
2018-04-24T03:30:25.447Z,73.50
2018-04-24T03:32:56.812Z,74.30
2018-04-24T03:35:34.342Z,74.20
2018-04-24T03:38:04.688Z,73.30
2018-04-24T03:40:35.818Z,73.90
2018-04-24T03:43:06.140Z,73.90
2018-04-24T03:45:36.487Z,73.10
2018-04-24T03:48:07.605Z,72.80
2018-04-24T03:50:38.758Z,72.70
2018-04-24T03:53:09.110Z,72.60
2018-04-24T03:55:39.487Z,71.90
2018-04-24T03:58:31.277Z,71.70
2018-04-24T04:01:01.644Z,73.40
2018-04-24T04:03:31.988Z,73.90
2018-04-24T04:06:02.327Z,75.10
2018-04-24T04:08:32.676Z,74.70
2018-04-24T04:11:03.000Z,75.00
2018-04-24T04:13:33.391Z,74.50
2018-04-24T04:16:03.759Z,75.70
2018-04-24T04:19:28.666Z,74.70
2018-04-24T04:22:53.993Z,74.70
2018-04-24T04:25:24.396Z,73.00
2018-04-24T04:27:54.720Z,74.60
2018-04-24T04:30:25.089Z,74.80
2018-04-24T04:32:55.522Z,74.60
2018-04-24T04:35:26.648Z,75.40
2018-04-24T04:37:56.924Z,75.40
2018-04-24T04:40:27.569Z,75.20
2018-04-24T04:42:58.680Z,75.20
2018-04-24T04:45:28.992Z,75.20
2018-04-24T04:47:59.376Z,75.90
2018-04-24T04:50:29.741Z,75.00
2018-04-24T04:53:00.103Z,75.30
2018-04-24T04:55:30.485Z,75.60
2018-04-24T04:58:08.103Z,75.50
2018-04-24T05:00:38.468Z,75.50
2018-04-24T05:03:08.821Z,75.70
2018-04-24T05:05:44.373Z,76.10
2018-04-24T05:11:04.998Z,77.00
2018-04-24T05:13:57.545Z,77.00
2018-04-24T05:16:27.930Z,77.00
2018-04-24T05:18:59.060Z,76.50
2018-04-24T05:21:30.379Z,76.50
2018-04-24T05:24:00.761Z,76.40
2018-04-24T05:26:31.203Z,75.60
2018-04-24T05:29:01.480Z,76.10
2018-04-24T05:31:33.902Z,76.50
2018-04-24T05:34:07.313Z,76.20
2018-04-24T05:36:38.717Z,75.80
2018-04-24T05:39:09.830Z,75.80
2018-04-24T05:41:40.166Z,75.80
2018-04-24T05:44:11.555Z,75.60
2018-04-24T05:46:43.043Z,75.60
2018-04-24T05:49:13.594Z,75.30
2018-04-24T05:51:44.061Z,75.20
2018-04-24T05:54:14.407Z,74.50
2018-04-24T05:56:44.759Z,74.40
2018-04-24T05:59:15.129Z,74.50
2018-04-24T06:01:45.476Z,74.80
2018-04-24T06:04:15.794Z,73.80
2018-04-24T06:06:46.153Z,73.70
2018-04-24T06:09:16.498Z,73.90
2018-04-24T06:11:46.831Z,74.00
2018-04-24T06:14:17.211Z,73.60
2018-04-24T06:16:51.617Z,73.70
2018-04-24T06:19:21.966Z,73.80
2018-04-24T06:22:14.584Z,74.40
2018-04-24T06:24:44.944Z,74.40
2018-04-24T06:27:16.319Z,74.40
2018-04-24T06:29:46.781Z,74.10
2018-04-24T06:32:18.120Z,74.00
2018-04-24T06:34:49.252Z,73.50
2018-04-24T06:37:20.403Z,72.90
2018-04-24T06:39:51.526Z,72.70
2018-04-24T06:42:21.931Z,72.60
2018-04-24T06:44:52.242Z,71.90
2018-04-24T06:47:45.946Z,71.20
2018-04-24T06:50:16.512Z,71.20
2018-04-24T06:52:46.851Z,73.00
2018-04-24T06:55:17.193Z,70.00
2018-04-24T06:57:51.737Z,71.30
2018-04-24T07:00:22.144Z,70.50
2018-04-24T07:02:52.438Z,69.50
2018-04-24T07:05:22.777Z,68.80
2018-04-24T07:07:53.140Z,69.60
2018-04-24T07:10:23.698Z,68.60
2018-04-24T07:12:54.144Z,68.90
2018-04-24T07:15:24.458Z,69.60
2018-04-24T07:17:55.570Z,67.00
2018-04-24T07:20:25.956Z,66.90
2018-04-24T07:22:56.318Z,67.70
2018-04-24T07:25:26.674Z,66.30
2018-04-24T07:27:57.063Z,66.20
2018-04-24T07:30:27.422Z,66.50
2018-04-24T07:32:57.764Z,65.20
2018-04-24T07:35:28.991Z,63.60
2018-04-24T07:37:59.364Z,63.50
2018-04-24T07:40:29.711Z,64.50
2018-04-24T07:43:01.125Z,65.10
2018-04-24T07:45:31.487Z,63.10
2018-04-24T07:48:03.082Z,63.00
2018-04-24T07:50:34.175Z,62.80
2018-04-24T07:53:11.855Z,62.80
2018-04-24T07:55:42.254Z,61.60
2018-04-24T07:58:12.610Z,60.90
2018-04-24T08:00:42.960Z,61.70
2018-04-24T08:03:17.434Z,61.60
2018-04-24T08:05:48.550Z,60.90
2018-04-24T08:08:18.914Z,60.90
2018-04-24T08:10:49.297Z,61.50
2018-04-24T08:13:19.634Z,61.90
2018-04-24T08:15:49.943Z,60.90
2018-04-24T08:18:20.313Z,60.90
2018-04-24T08:20:50.666Z,61.80
2018-04-24T08:23:21.005Z,62.90
2018-04-24T08:25:53.429Z,62.90
2018-04-24T08:28:24.509Z,61.60
2018-04-24T08:30:54.879Z,61.60
2018-04-24T08:33:25.274Z,62.20
2018-04-24T08:35:56.646Z,60.70
2018-04-24T08:38:26.989Z,60.20
2018-04-24T08:40:57.379Z,61.10
2018-04-24T08:43:27.735Z,61.00
2018-04-24T08:45:58.079Z,61.10
2018-04-24T08:48:29.226Z,61.70
2018-04-24T08:50:59.590Z,61.60
2018-04-24T08:53:37.131Z,62.20
2018-04-24T08:56:08.242Z,62.50
2018-04-24T08:58:38.603Z,61.60
2018-04-24T09:01:09.946Z,61.60
2018-04-24T09:03:40.255Z,61.70
2018-04-24T09:06:10.619Z,62.70
2018-04-24T09:08:41.766Z,61.80
2018-04-24T09:11:12.894Z,61.80
2018-04-24T09:13:44.020Z,61.50
2018-04-24T09:16:14.407Z,61.40
2018-04-24T09:21:32.587Z,61.20
2018-04-24T09:24:24.350Z,60.80
2018-04-24T09:26:55.786Z,60.00
2018-04-24T09:29:31.217Z,59.80
2018-04-24T09:32:02.598Z,59.90
2018-04-24T09:34:33.730Z,59.20
2018-04-24T09:37:04.069Z,59.20
2018-04-24T09:39:35.218Z,59.90
2018-04-24T09:42:06.330Z,60.30
2018-04-24T09:44:36.695Z,60.20
2018-04-24T09:47:07.035Z,59.60
2018-04-24T09:49:37.397Z,60.60
2018-04-24T09:52:07.742Z,59.70
2018-04-24T09:54:38.130Z,59.90
2018-04-24T09:57:12.574Z,58.90
2018-04-24T09:59:42.883Z,58.80
2018-04-24T10:02:15.429Z,58.00
2018-04-24T10:04:45.682Z,58.00
2018-04-24T10:07:16.051Z,57.80
2018-04-24T10:09:47.181Z,58.60
2018-04-24T10:12:17.525Z,58.40
2018-04-24T10:14:48.633Z,59.60
2018-04-24T10:17:18.997Z,59.60
2018-04-24T10:19:50.163Z,57.80
2018-04-24T10:22:20.472Z,57.90
2018-04-24T10:24:50.853Z,58.60
2018-04-24T10:27:21.283Z,57.20
2018-04-24T10:29:51.579Z,57.10
2018-04-24T10:32:21.893Z,56.80
2018-04-24T10:34:52.245Z,57.30
2018-04-24T10:37:27.769Z,57.30
2018-04-24T10:39:59.067Z,56.40
2018-04-24T10:42:29.410Z,56.30
2018-04-24T10:45:00.558Z,56.90
2018-04-24T10:47:30.904Z,56.80
2018-04-24T10:50:01.272Z,57.20
2018-04-24T10:52:31.647Z,55.60
2018-04-24T10:55:02.723Z,55.90
2018-04-24T10:57:38.177Z,55.80
2018-04-24T11:00:08.557Z,55.80
2018-04-24T11:02:38.933Z,54.70
2018-04-24T11:05:09.382Z,53.70
2018-04-24T11:07:39.688Z,55.90
2018-04-24T11:10:10.050Z,56.40
2018-04-24T11:12:41.193Z,54.70
2018-04-24T11:15:12.317Z,55.60
2018-04-24T11:17:42.684Z,55.50
2018-04-24T11:20:13.018Z,56.00
2018-04-24T11:22:43.392Z,55.60
2018-04-24T11:25:13.716Z,55.80
2018-04-24T11:27:44.092Z,55.40
2018-04-24T11:30:14.489Z,55.60
2018-04-24T11:32:48.911Z,55.40
2018-04-24T11:35:20.051Z,55.60
2018-04-24T11:37:50.398Z,55.60
2018-04-24T11:40:21.731Z,56.90
2018-04-24T11:42:52.074Z,56.90
2018-04-24T11:45:22.630Z,56.00
2018-04-24T11:47:53.004Z,55.90
2018-04-24T11:50:23.369Z,56.50
2018-04-24T11:52:53.710Z,55.70
2018-04-24T11:55:24.139Z,55.60
2018-04-24T11:57:54.431Z,54.80
2018-04-24T12:00:24.796Z,55.90
2018-04-24T12:03:14.273Z,55.50
2018-04-24T12:06:06.049Z,55.30
2018-04-24T12:08:36.435Z,54.20
2018-04-24T12:11:27.168Z,52.90
2018-04-24T12:13:57.560Z,53.80
2018-04-24T12:16:49.325Z,53.90
2018-04-24T12:19:20.731Z,55.00
2018-04-24T12:21:55.162Z,54.10
2018-04-24T12:24:26.658Z,54.20
2018-04-24T12:26:57.680Z,54.30
2018-04-24T12:29:28.038Z,54.20
2018-04-24T12:31:58.370Z,55.60
2018-04-24T12:34:28.713Z,54.60
2018-04-24T12:36:59.073Z,54.00
2018-04-24T12:39:29.438Z,54.70
2018-04-24T12:41:59.800Z,55.30
2018-04-24T12:44:30.349Z,53.70
2018-04-24T12:47:00.741Z,54.30
2018-04-24T12:49:31.105Z,54.00
2018-04-24T12:52:01.410Z,53.60
2018-04-24T12:54:31.776Z,52.40
2018-04-24T12:57:02.120Z,52.10
2018-04-24T12:59:32.429Z,52.50
2018-04-24T13:02:02.810Z,53.40
2018-04-24T13:04:37.250Z,54.90
2018-04-24T13:07:13.529Z,51.60
2018-04-24T13:09:43.965Z,51.50
2018-04-24T13:12:14.236Z,52.90
2018-04-24T13:14:44.617Z,52.20
2018-04-24T13:17:14.989Z,53.40
2018-04-24T13:19:47.659Z,52.40
2018-04-24T13:22:18.017Z,52.50
2018-04-24T13:25:07.456Z,52.20
2018-04-24T13:27:37.837Z,52.10
2018-04-24T13:30:08.175Z,52.70
2018-04-24T13:35:26.604Z,51.60
2018-04-24T13:37:57.998Z,50.10
2018-04-24T13:40:29.106Z,52.00
2018-04-24T13:42:59.758Z,52.00
2018-04-24T13:45:30.048Z,52.80
2018-04-24T13:48:07.541Z,52.30
2018-04-24T13:50:37.893Z,52.30
2018-04-24T13:53:08.235Z,52.60
2018-04-24T13:55:39.368Z,52.90
2018-04-24T13:58:09.729Z,53.30
2018-04-24T14:00:40.823Z,52.30
2018-04-24T14:03:11.149Z,52.30
2018-04-24T14:05:41.486Z,52.30
2018-04-24T14:08:11.826Z,52.20
2018-04-24T14:10:42.989Z,52.90
2018-04-24T14:13:15.115Z,52.10
2018-04-24T14:15:45.478Z,52.00
2018-04-24T14:18:16.614Z,51.90
2018-04-24T14:20:46.990Z,51.90
2018-04-24T14:23:37.700Z,51.40
2018-04-24T14:26:13.171Z,50.70
2018-04-24T14:28:43.550Z,51.70
2018-04-24T14:31:13.902Z,52.50
2018-04-24T14:33:46.512Z,52.90
2018-04-24T14:36:17.660Z,52.20
2018-04-24T14:38:48.772Z,53.70
2018-04-24T14:41:19.171Z,53.30
2018-04-24T14:43:49.479Z,53.30
2018-04-24T14:46:19.830Z,52.20
2018-04-24T14:48:52.221Z,52.50
2018-04-24T14:51:44.774Z,51.90
2018-04-24T14:54:15.072Z,51.90
2018-04-24T14:56:51.606Z,51.80
2018-04-24T14:59:21.902Z,52.80
2018-04-24T15:01:52.258Z,51.60
2018-04-24T15:04:22.625Z,51.90
2018-04-24T15:06:55.036Z,53.10
2018-04-24T15:09:26.356Z,52.70
2018-04-24T15:11:56.726Z,51.90
2018-04-24T15:14:27.850Z,52.20
2018-04-24T15:16:58.212Z,52.10
2018-04-24T15:19:28.755Z,53.20
2018-04-24T15:21:59.052Z,52.40
2018-04-24T15:24:30.161Z,52.90
2018-04-24T15:27:00.517Z,52.80
2018-04-24T15:29:31.631Z,53.00
2018-04-24T15:32:01.969Z,52.90
2018-04-24T15:34:32.344Z,52.30
2018-04-24T15:37:02.688Z,52.60
2018-04-24T15:39:33.039Z,54.40
2018-04-24T15:42:03.374Z,54.00
2018-04-24T15:44:33.711Z,53.40
2018-04-24T15:47:04.826Z,53.40
2018-04-24T15:49:35.199Z,53.30
2018-04-24T15:52:05.611Z,54.50
2018-04-24T15:54:42.062Z,53.60
2018-04-24T15:57:12.419Z,54.30
2018-04-24T15:59:42.778Z,54.20
2018-04-24T16:02:32.508Z,54.10
2018-04-24T16:05:03.584Z,55.00
2018-04-24T16:07:33.927Z,54.90
2018-04-24T16:10:24.707Z,54.50
2018-04-24T16:12:55.064Z,54.10
2018-04-24T16:15:25.403Z,53.70
2018-04-24T16:17:55.795Z,53.40
2018-04-24T16:20:27.190Z,53.90
2018-04-24T16:22:58.555Z,53.70
2018-04-24T16:25:28.924Z,53.70
2018-04-24T16:28:01.312Z,53.60
2018-04-24T16:30:36.804Z,53.90
2018-04-24T16:33:07.933Z,53.00
2018-04-24T16:35:38.282Z,53.00
2018-04-24T16:38:09.384Z,53.60
2018-04-24T16:40:39.726Z,53.50
2018-04-24T16:43:10.079Z,53.90
2018-04-24T16:45:40.453Z,53.80
2018-04-24T16:48:13.864Z,53.40
2018-04-24T16:50:44.227Z,53.40
2018-04-24T16:53:15.379Z,53.60
2018-04-24T16:55:45.727Z,53.50
2018-04-24T16:58:16.071Z,53.70
2018-04-24T17:00:46.474Z,53.30
2018-04-24T17:03:16.827Z,53.70
2018-04-24T17:05:47.131Z,53.80
2018-04-24T17:08:38.676Z,53.50
2018-04-24T17:11:09.017Z,53.40
2018-04-24T17:13:39.372Z,54.10
2018-04-24T17:16:09.736Z,54.30
2018-04-24T17:19:02.276Z,53.30
2018-04-24T17:21:39.984Z,53.20
2018-04-24T17:24:31.755Z,53.40
2018-04-24T17:27:02.915Z,53.80
2018-04-24T17:29:33.260Z,53.70
2018-04-24T17:32:03.611Z,53.70
2018-04-24T17:34:55.391Z,54.10
2018-04-24T17:37:26.496Z,55.30
2018-04-24T17:39:56.857Z,55.30
2018-04-24T17:42:28.004Z,55.80
2018-04-24T17:44:58.316Z,55.80
2018-04-24T17:47:29.442Z,56.50
2018-04-24T17:52:43.537Z,56.50
2018-04-24T17:55:14.660Z,57.30
2018-04-24T17:57:44.993Z,57.30
2018-04-24T18:00:16.095Z,57.70
2018-04-24T18:03:08.905Z,57.90
2018-04-24T18:05:40.015Z,58.10
2018-04-24T18:08:10.312Z,58.10
2018-04-24T18:11:02.872Z,58.00
2018-04-24T18:13:33.221Z,58.00
2018-04-24T18:16:03.567Z,58.00
2018-04-24T18:18:34.693Z,58.00
2018-04-24T18:21:05.024Z,57.90
2018-04-24T18:23:35.381Z,58.20
2018-04-24T18:26:05.759Z,58.30
2018-04-24T18:28:36.119Z,58.10
2018-04-24T18:31:07.228Z,58.60
2018-04-24T18:33:37.890Z,58.50
2018-04-24T18:36:08.993Z,59.00
2018-04-24T18:38:39.347Z,58.90
2018-04-24T18:41:10.475Z,59.70
2018-04-24T18:43:41.142Z,59.70
2018-04-24T18:46:12.204Z,60.10
2018-04-24T18:48:42.574Z,60.10
2018-04-24T18:51:13.236Z,60.60
2018-04-24T18:53:44.337Z,62.00
2018-04-24T18:56:14.695Z,61.90
2018-04-24T18:58:45.819Z,62.20
2018-04-24T19:01:16.174Z,62.10
2018-04-24T19:03:47.318Z,62.30
2018-04-24T19:06:18.424Z,62.30
2018-04-24T19:08:48.757Z,62.20
2018-04-24T19:11:19.125Z,62.40
2018-04-24T19:13:51.448Z,62.90
2018-04-24T19:16:21.801Z,62.70
2018-04-24T19:19:10.643Z,62.40
2018-04-24T19:21:41.019Z,62.50
2018-04-24T19:24:11.360Z,62.90
2018-04-24T19:27:03.938Z,63.40
2018-04-24T19:29:34.281Z,63.40
2018-04-24T19:32:22.516Z,63.50
2018-04-24T19:34:52.848Z,63.60
2018-04-24T19:37:23.953Z,64.10
2018-04-24T19:40:33.271Z,64.00
2018-04-24T19:43:03.609Z,64.00
2018-04-24T19:45:54.491Z,64.10
2018-04-24T19:48:42.581Z,64.10
2018-04-24T19:51:12.945Z,64.10
2018-04-24T19:53:44.054Z,63.50
2018-04-24T19:56:14.388Z,63.40
2018-04-24T19:58:45.131Z,63.80
2018-04-24T20:01:16.165Z,63.80
2018-04-24T20:03:47.523Z,63.80
2018-04-24T20:06:18.677Z,64.20
2018-04-24T20:08:49.794Z,64.80
2018-04-24T20:11:20.136Z,64.10
2018-04-24T20:13:51.281Z,64.80
2018-04-24T20:16:22.400Z,65.30
2018-04-24T20:18:58.681Z,64.60
2018-04-24T20:21:29.044Z,64.80
2018-04-24T20:23:59.391Z,64.60
2018-04-24T20:26:31.817Z,64.30
2018-04-24T20:29:02.941Z,64.60
2018-04-24T20:31:33.303Z,64.50
2018-04-24T20:34:04.459Z,65.00
2018-04-24T20:36:34.817Z,64.80
2018-04-24T20:39:08.228Z,64.70
2018-04-24T20:41:38.606Z,65.20
2018-04-24T20:44:08.964Z,64.40
2018-04-24T20:47:01.503Z,64.10
2018-04-24T20:49:39.188Z,64.10
2018-04-24T20:52:09.557Z,64.00
2018-04-24T20:54:39.902Z,64.50
2018-04-24T20:57:11.026Z,64.40
2018-04-24T20:59:41.354Z,64.40
2018-04-24T21:02:11.720Z,64.80
2018-04-24T21:04:42.064Z,64.80
2018-04-24T21:07:14.475Z,65.30
2018-04-24T21:09:44.828Z,65.10
2018-04-24T21:12:18.010Z,65.20
2018-04-24T21:14:48.337Z,65.10
2018-04-24T21:17:18.675Z,65.30
2018-04-24T21:19:49.801Z,65.40
2018-04-24T21:22:22.177Z,65.40
2018-04-24T21:24:53.308Z,65.30
2018-04-24T21:27:23.614Z,65.20
2018-04-24T21:29:54.970Z,65.40
2018-04-24T21:32:25.268Z,65.40
2018-04-24T21:34:57.682Z,65.40
2018-04-24T21:37:28.063Z,65.30
2018-04-24T21:39:58.399Z,65.00
2018-04-24T21:42:50.969Z,65.30
2018-04-24T21:45:21.276Z,65.30
2018-04-24T21:48:13.072Z,65.50
2018-04-24T21:50:43.438Z,65.40
2018-04-24T21:53:14.825Z,65.50
2018-04-24T21:55:45.943Z,65.70
2018-04-24T21:58:16.287Z,65.70
2018-04-24T22:00:46.633Z,65.70
2018-04-24T22:03:17.784Z,66.20
2018-04-24T22:08:32.409Z,65.80
2018-04-24T22:11:02.712Z,65.80
2018-04-24T22:13:40.252Z,65.90
2018-04-24T22:16:10.613Z,66.20
2018-04-24T22:18:40.950Z,66.50
2018-04-24T22:21:11.362Z,66.60
2018-04-24T22:23:41.594Z,66.50
2018-04-24T22:26:11.938Z,66.90
2018-04-24T22:28:42.291Z,66.90
2018-04-24T22:31:12.659Z,67.70
2018-04-24T22:33:43.024Z,66.90
2018-04-24T22:36:13.386Z,67.20
2018-04-24T22:38:44.508Z,67.10
2018-04-24T22:41:14.869Z,67.70
2018-04-24T22:43:45.228Z,67.80
2018-04-24T22:46:16.612Z,68.30
2018-04-24T22:48:46.952Z,68.70
2018-04-24T22:51:17.331Z,68.70
2018-04-24T22:53:51.786Z,69.80
2018-04-24T22:56:22.350Z,69.90
2018-04-24T22:58:53.505Z,70.60
2018-04-24T23:01:23.895Z,70.60
2018-04-24T23:03:54.209Z,70.50
2018-04-24T23:06:24.594Z,71.10
2018-04-24T23:08:54.937Z,71.10
2018-04-24T23:12:22.095Z,71.50
2018-04-24T23:15:55.336Z,71.40
2018-04-24T23:19:20.681Z,71.80
2018-04-24T23:21:50.241Z,71.80
2018-04-24T23:24:20.548Z,71.70
2018-04-24T23:27:12.285Z,72.20
2018-04-24T23:29:42.860Z,71.90
2018-04-24T23:32:13.988Z,71.60
2018-04-24T23:34:45.141Z,72.00
2018-04-24T23:37:16.245Z,71.90
2018-04-24T23:39:46.601Z,71.80
2018-04-24T23:42:16.985Z,71.90
2018-04-24T23:45:09.487Z,72.30
2018-04-24T23:47:40.625Z,72.50
2018-04-24T23:50:11.734Z,72.40
2018-04-24T23:52:43.112Z,72.40
2018-04-24T23:55:14.243Z,72.60
2018-04-24T23:57:44.576Z,72.70
